createdAt,value
2018-11-27T00:08:22.084Z,0.00
2018-11-27T06:44:17.700Z,112.00
2018-11-27T06:45:17.688Z,120.00
2018-11-27T06:46:17.677Z,128.00
2018-11-27T06:47:17.669Z,136.00
2018-11-27T06:48:17.654Z,144.00
2018-11-27T06:49:17.643Z,156.00
2018-11-27T06:50:17.633Z,168.00
2018-11-27T06:51:17.622Z,176.00
2018-11-27T06:52:17.611Z,188.00
2018-11-27T06:53:17.598Z,204.00
2018-11-27T06:54:17.588Z,216.00
2018-11-27T06:55:17.581Z,232.00
2018-11-27T06:56:17.569Z,248.00
2018-11-27T06:57:17.555Z,268.00
2018-11-27T06:58:17.547Z,284.00
2018-11-27T06:59:17.533Z,304.00
2018-11-27T07:00:17.520Z,324.00
2018-11-27T07:01:17.511Z,348.00
2018-11-27T07:02:17.499Z,368.00
2018-11-27T07:03:17.487Z,392.00
2018-11-27T07:04:17.477Z,416.00
2018-11-27T07:05:17.518Z,444.00
2018-11-27T07:06:17.455Z,472.00
2018-11-27T07:07:17.443Z,508.00
2018-11-27T07:08:17.483Z,540.00
2018-11-27T07:09:17.421Z,576.00
2018-11-27T07:10:17.414Z,608.00
2018-11-27T07:11:17.401Z,640.00
2018-11-27T07:12:17.389Z,668.00
2018-11-27T07:13:17.581Z,700.00
2018-11-27T07:14:17.367Z,740.00
2018-11-27T07:15:17.355Z,788.00
2018-11-27T07:16:17.351Z,840.00
2018-11-27T07:17:17.341Z,888.00
2018-11-27T07:18:17.327Z,928.00
2018-11-27T07:19:17.311Z,1000.00
2018-11-27T07:20:17.306Z,1060.00
2018-11-27T07:21:17.288Z,1116.00
2018-11-27T07:22:17.285Z,1172.00
2018-11-27T07:23:17.266Z,1216.00
2018-11-27T07:24:17.260Z,1272.00
2018-11-27T07:25:17.255Z,1360.00
2018-11-27T07:26:17.233Z,1408.00
2018-11-27T07:27:17.229Z,1448.00
2018-11-27T07:28:17.215Z,1496.00
2018-11-27T07:29:17.201Z,1556.00
2018-11-27T07:30:17.191Z,1608.00
2018-11-27T07:31:17.179Z,1652.00
2018-11-27T07:32:17.167Z,1696.00
2018-11-27T07:33:17.164Z,1740.00
2018-11-27T07:34:17.146Z,1784.00
2018-11-27T07:35:17.134Z,1840.00
2018-11-27T07:36:17.137Z,1892.00
2018-11-27T07:37:17.119Z,1920.00
2018-11-27T07:38:17.102Z,1944.00
2018-11-27T07:39:17.139Z,1984.00
2018-11-27T07:40:17.077Z,2064.00
2018-11-27T07:41:17.068Z,2152.00
2018-11-27T07:42:17.055Z,2224.00
2018-11-27T07:43:17.051Z,2280.00
2018-11-27T07:44:17.237Z,2348.00
2018-11-27T07:45:17.026Z,2416.00
2018-11-27T07:46:17.011Z,2452.00
2018-11-27T07:47:17.001Z,2464.00
2018-11-27T07:48:16.989Z,2480.00
2018-11-27T07:49:16.979Z,2528.00
2018-11-27T07:50:16.968Z,2580.00
2018-11-27T07:51:16.958Z,2608.00
2018-11-27T07:52:16.944Z,2624.00
2018-11-27T07:53:16.936Z,2672.00
2018-11-27T07:54:16.922Z,2744.00
2018-11-27T07:55:16.912Z,2792.00
2018-11-27T07:56:16.904Z,2808.00
2018-11-27T07:57:16.898Z,2816.00
2018-11-27T07:58:16.884Z,2828.00
2018-11-27T07:59:16.874Z,2848.00
2018-11-27T08:00:16.858Z,2896.00
2018-11-27T08:01:16.847Z,2968.00
2018-11-27T08:02:16.832Z,3028.00
2018-11-27T08:03:16.822Z,3100.00
2018-11-27T08:04:16.811Z,3204.00
2018-11-27T08:05:16.803Z,3280.00
2018-11-27T08:06:16.793Z,3360.00
2018-11-27T08:07:16.778Z,3436.00
2018-11-27T08:08:16.767Z,3500.00
2018-11-27T08:09:16.801Z,3552.00
2018-11-27T08:10:16.761Z,3608.00
2018-11-27T08:11:16.767Z,3648.00
2018-11-27T08:12:16.776Z,3692.00
2018-11-27T08:13:16.765Z,3744.00
2018-11-27T08:14:16.713Z,3800.00
2018-11-27T08:15:16.718Z,3852.00
2018-11-27T08:16:16.720Z,3916.00
2018-11-27T08:17:16.670Z,3988.00
2018-11-27T08:18:16.659Z,4052.00
2018-11-27T08:19:16.644Z,4108.00
2018-11-27T08:20:16.641Z,4140.00
2018-11-27T08:21:16.621Z,4136.00
2018-11-27T08:22:16.618Z,4164.00
2018-11-27T08:23:16.603Z,4208.00
2018-11-27T08:24:16.595Z,4272.00
2018-11-27T08:25:16.582Z,4324.00
2018-11-27T08:26:16.567Z,4364.00
2018-11-27T08:27:16.560Z,4432.00
2018-11-27T08:28:16.548Z,4496.00
2018-11-27T08:29:16.534Z,4540.00
2018-11-27T08:30:16.524Z,4576.00
2018-11-27T08:31:16.513Z,4560.00
2018-11-27T08:32:16.501Z,4556.00
2018-11-27T08:33:16.491Z,4588.00
2018-11-27T08:34:16.481Z,4660.00
2018-11-27T08:35:16.474Z,4724.00
2018-11-27T08:36:16.460Z,4748.00
2018-11-27T08:37:16.447Z,4756.00
2018-11-27T08:38:16.436Z,4784.00
2018-11-27T08:39:16.432Z,4808.00
2018-11-27T08:40:16.414Z,4784.00
2018-11-27T08:41:16.402Z,4752.00
2018-11-27T08:42:16.392Z,4712.00
2018-11-27T08:43:16.389Z,4636.00
2018-11-27T08:44:16.373Z,4544.00
2018-11-27T08:45:16.358Z,4512.00
2018-11-27T08:46:16.354Z,4564.00
2018-11-27T08:47:16.336Z,4664.00
2018-11-27T08:48:16.324Z,4660.00
2018-11-27T08:49:16.322Z,4512.00
2018-11-27T08:50:16.307Z,4304.00
2018-11-27T08:51:16.295Z,4164.00
2018-11-27T08:52:16.280Z,4124.00
2018-11-27T08:53:16.276Z,4080.00
2018-11-27T08:54:16.260Z,4080.00
2018-11-27T08:55:16.248Z,4152.00
2018-11-27T08:56:16.242Z,4232.00
2018-11-27T08:57:16.232Z,4280.00
2018-11-27T08:58:16.214Z,4296.00
2018-11-27T08:59:16.208Z,4244.00
2018-11-27T09:00:16.194Z,4184.00
2018-11-27T09:01:16.181Z,4212.00
2018-11-27T09:02:16.172Z,4316.00
2018-11-27T09:03:16.167Z,4364.00
2018-11-27T09:04:16.150Z,4392.00
2018-11-27T09:05:16.140Z,4416.00
2018-11-27T09:06:16.127Z,4360.00
2018-11-27T09:07:17.131Z,4316.00
2018-11-27T09:08:16.114Z,4288.00
2018-11-27T09:09:16.098Z,4260.00
2018-11-27T09:10:16.082Z,4208.00
2018-11-27T09:11:16.073Z,4116.00
2018-11-27T09:12:16.063Z,4028.00
2018-11-27T09:13:16.275Z,3984.00
2018-11-27T09:14:16.038Z,3976.00
2018-11-27T09:15:16.098Z,3988.00
2018-11-27T09:16:16.017Z,4004.00
2018-11-27T09:17:16.010Z,4056.00
2018-11-27T09:18:15.995Z,4104.00
2018-11-27T09:19:15.984Z,4132.00
2018-11-27T09:20:15.974Z,4136.00
2018-11-27T09:21:15.961Z,4164.00
2018-11-27T09:22:15.950Z,4148.00
2018-11-27T09:23:15.940Z,4092.00
2018-11-27T09:24:15.928Z,4060.00
2018-11-27T09:25:15.951Z,4084.00
2018-11-27T09:26:15.915Z,4124.00
2018-11-27T09:27:15.893Z,4128.00
2018-11-27T09:28:15.887Z,4072.00
2018-11-27T09:29:15.872Z,3992.00
2018-11-27T09:30:15.861Z,3924.00
2018-11-27T09:31:15.850Z,3904.00
2018-11-27T09:32:15.843Z,3880.00
2018-11-27T09:33:15.827Z,3864.00
2018-11-27T09:34:15.818Z,3872.00
2018-11-27T09:35:15.806Z,3916.00
2018-11-27T09:36:15.794Z,3956.00
2018-11-27T09:37:15.788Z,3932.00
2018-11-27T09:38:15.774Z,3840.00
2018-11-27T09:39:15.763Z,3740.00
2018-11-27T09:40:15.753Z,3680.00
2018-11-27T09:41:15.742Z,3708.00
2018-11-27T09:42:15.736Z,3788.00
2018-11-27T09:43:15.715Z,3840.00
2018-11-27T09:44:15.711Z,3864.00
2018-11-27T09:45:15.721Z,3876.00
2018-11-27T09:46:15.680Z,3908.00
2018-11-27T09:47:15.672Z,3956.00
2018-11-27T09:48:15.659Z,3972.00
2018-11-27T09:49:15.647Z,3960.00
2018-11-27T09:50:15.643Z,3944.00
2018-11-27T09:51:15.629Z,3960.00
2018-11-27T09:52:15.622Z,3976.00
2018-11-27T09:53:15.604Z,3948.00
2018-11-27T09:54:15.596Z,3864.00
2018-11-27T09:55:15.582Z,3804.00
2018-11-27T09:56:15.574Z,3776.00
2018-11-27T09:57:15.557Z,3764.00
2018-11-27T09:58:15.549Z,3764.00
2018-11-27T09:59:15.540Z,3768.00
2018-11-27T10:00:15.522Z,3772.00
2018-11-27T10:01:15.512Z,3804.00
2018-11-27T10:02:15.506Z,3792.00
2018-11-27T10:03:15.491Z,3784.00
2018-11-27T10:04:15.480Z,3812.00
2018-11-27T10:05:15.467Z,3852.00
2018-11-27T10:06:15.459Z,3844.00
2018-11-27T10:07:15.454Z,3756.00
2018-11-27T10:08:15.434Z,3668.00
2018-11-27T10:09:15.423Z,3640.00
2018-11-27T10:10:15.415Z,3680.00
2018-11-27T10:11:15.737Z,3716.00
2018-11-27T10:12:15.389Z,3708.00
2018-11-27T10:13:15.375Z,3668.00
2018-11-27T10:14:15.377Z,3612.00
2018-11-27T10:15:15.361Z,3568.00
2018-11-27T10:16:15.349Z,3556.00
2018-11-27T10:17:15.333Z,3592.00
2018-11-27T10:18:15.323Z,3652.00
2018-11-27T10:19:15.317Z,3680.00
2018-11-27T10:20:15.307Z,3720.00
2018-11-27T10:21:15.292Z,3784.00
2018-11-27T10:22:15.276Z,3868.00
2018-11-27T10:23:15.266Z,3900.00
2018-11-27T10:24:15.262Z,3880.00
2018-11-27T10:25:15.244Z,3836.00
2018-11-27T10:26:15.233Z,3812.00
2018-11-27T10:27:15.220Z,3836.00
2018-11-27T10:28:15.205Z,3864.00
2018-11-27T10:29:15.201Z,3904.00
2018-11-27T10:30:15.186Z,3960.00
2018-11-27T10:31:15.199Z,4040.00
2018-11-27T10:32:15.163Z,4112.00
2018-11-27T10:33:15.151Z,4200.00
2018-11-27T10:34:15.142Z,4248.00
2018-11-27T10:35:15.130Z,4264.00
2018-11-27T10:36:15.123Z,4264.00
2018-11-27T10:37:15.106Z,4240.00
2018-11-27T10:38:15.093Z,4212.00
2018-11-27T10:39:15.082Z,4208.00
2018-11-27T10:40:15.074Z,4224.00
2018-11-27T10:41:15.060Z,4220.00
2018-11-27T10:42:15.052Z,4176.00
2018-11-27T10:43:19.672Z,4132.00
2018-11-27T10:44:15.033Z,4120.00
2018-11-27T10:45:15.016Z,4112.00
2018-11-27T10:46:15.007Z,4108.00
2018-11-27T10:47:14.994Z,4096.00
2018-11-27T10:48:14.985Z,4084.00
2018-11-27T10:49:14.971Z,4032.00
2018-11-27T10:50:14.960Z,3964.00
2018-11-27T10:51:14.952Z,3896.00
2018-11-27T10:52:14.940Z,3872.00
2018-11-27T10:53:14.928Z,3896.00
2018-11-27T10:54:14.916Z,3936.00
2018-11-27T10:55:14.907Z,3972.00
2018-11-27T10:56:14.900Z,4008.00
2018-11-27T10:57:14.886Z,4044.00
2018-11-27T10:58:14.873Z,4076.00
2018-11-27T10:59:14.860Z,4088.00
2018-11-27T11:00:14.849Z,4048.00
2018-11-27T11:01:14.836Z,3988.00
2018-11-27T11:02:14.825Z,3952.00
2018-11-27T11:03:14.813Z,3912.00
2018-11-27T11:04:14.802Z,3896.00
2018-11-27T11:05:14.793Z,3892.00
2018-11-27T11:06:14.784Z,3896.00
2018-11-27T11:07:15.712Z,3912.00
2018-11-27T11:08:14.758Z,3920.00
2018-11-27T11:09:14.757Z,3904.00
2018-11-27T11:10:14.740Z,3872.00
2018-11-27T11:11:14.724Z,3840.00
2018-11-27T11:12:14.712Z,3784.00
2018-11-27T11:13:14.708Z,3688.00
2018-11-27T11:14:14.693Z,3628.00
2018-11-27T11:15:14.680Z,3636.00
2018-11-27T11:16:14.671Z,3684.00
2018-11-27T11:17:14.657Z,3732.00
2018-11-27T11:18:14.644Z,3744.00
2018-11-27T11:19:18.335Z,3724.00
2018-11-27T11:20:14.626Z,3716.00
2018-11-27T11:21:14.615Z,3732.00
2018-11-27T11:22:14.600Z,3792.00
2018-11-27T11:23:14.589Z,3848.00
2018-11-27T11:24:14.582Z,3860.00
2018-11-27T11:25:14.567Z,3856.00
2018-11-27T11:26:14.555Z,3884.00
2018-11-27T11:27:14.545Z,3948.00
2018-11-27T11:28:14.539Z,4012.00
2018-11-27T11:29:14.521Z,4020.00
2018-11-27T11:30:14.511Z,3960.00
2018-11-27T11:31:14.499Z,3864.00
2018-11-27T11:32:14.497Z,3752.00
2018-11-27T11:33:14.480Z,3612.00
2018-11-27T11:34:14.466Z,3484.00
2018-11-27T11:35:14.465Z,3368.00
2018-11-27T11:36:14.443Z,3288.00
2018-11-27T11:37:14.438Z,3244.00
2018-11-27T11:38:14.422Z,3204.00
2018-11-27T11:39:14.438Z,3140.00
2018-11-27T11:40:14.401Z,3072.00
2018-11-27T11:41:14.389Z,3020.00
2018-11-27T11:42:14.381Z,2984.00
2018-11-27T11:43:14.371Z,2964.00
2018-11-27T11:44:14.356Z,2948.00
2018-11-27T11:45:14.368Z,2920.00
2018-11-27T11:46:14.337Z,2884.00
2018-11-27T11:47:14.321Z,2844.00
2018-11-27T11:48:14.312Z,2812.00
2018-11-27T11:49:14.300Z,2816.00
2018-11-27T11:50:14.291Z,2816.00
2018-11-27T11:51:14.282Z,2804.00
2018-11-27T11:52:14.269Z,2788.00
2018-11-27T11:53:14.259Z,2768.00
2018-11-27T11:54:14.243Z,2720.00
2018-11-27T11:55:14.231Z,2668.00
2018-11-27T11:56:14.222Z,2628.00
2018-11-27T11:57:14.219Z,2600.00
2018-11-27T11:58:14.201Z,2576.00
2018-11-27T11:59:14.189Z,2564.00
2018-11-27T12:00:14.216Z,2544.00
2018-11-27T12:01:14.170Z,2524.00
2018-11-27T12:02:14.153Z,2516.00
2018-11-27T12:03:14.141Z,2512.00
2018-11-27T12:04:14.130Z,2496.00
2018-11-27T12:05:14.118Z,2468.00
2018-11-27T12:06:14.111Z,2424.00
2018-11-27T12:07:14.097Z,2392.00
2018-11-27T12:08:14.087Z,2376.00
2018-11-27T12:09:14.074Z,2372.00
2018-11-27T12:10:14.063Z,2384.00
2018-11-27T12:11:14.372Z,2392.00
2018-11-27T12:12:14.049Z,2380.00
2018-11-27T12:13:14.030Z,2360.00
2018-11-27T12:14:14.018Z,2344.00
2018-11-27T12:15:14.017Z,2336.00
2018-11-27T12:16:13.996Z,2336.00
2018-11-27T12:17:13.985Z,2336.00
2018-11-27T12:18:13.975Z,2320.00
2018-11-27T12:19:13.972Z,2292.00
2018-11-27T12:20:13.953Z,2264.00
2018-11-27T12:21:13.941Z,2244.00
2018-11-27T12:22:13.939Z,2228.00
2018-11-27T12:23:13.926Z,2228.00
2018-11-27T12:24:13.915Z,2240.00
2018-11-27T12:25:13.899Z,2276.00
2018-11-27T12:26:13.892Z,2312.00
2018-11-27T12:27:13.873Z,2332.00
2018-11-27T12:28:14.932Z,2332.00
2018-11-27T12:29:13.857Z,2312.00
2018-11-27T12:30:13.840Z,2276.00
2018-11-27T12:31:13.833Z,2244.00
2018-11-27T12:32:13.820Z,2232.00
2018-11-27T12:33:13.807Z,2240.00
2018-11-27T12:34:13.797Z,2248.00
2018-11-27T12:35:13.796Z,2244.00
2018-11-27T12:36:13.781Z,2236.00
2018-11-27T12:37:13.763Z,2228.00
2018-11-27T12:38:13.751Z,2208.00
2018-11-27T12:39:13.758Z,2188.00
2018-11-27T12:40:13.752Z,2160.00
2018-11-27T12:41:13.719Z,2164.00
2018-11-27T12:42:13.709Z,2188.00
2018-11-27T12:43:13.696Z,2256.00
2018-11-27T12:44:13.687Z,2304.00
2018-11-27T12:45:13.674Z,2304.00
2018-11-27T12:46:13.666Z,2268.00
2018-11-27T12:47:13.702Z,2220.00
2018-11-27T12:48:13.641Z,2164.00
2018-11-27T12:49:13.658Z,2112.00
2018-11-27T12:50:13.626Z,2064.00
2018-11-27T12:51:14.170Z,2024.00
2018-11-27T12:52:13.596Z,1988.00
2018-11-27T12:53:16.691Z,1944.00
2018-11-27T12:54:13.577Z,1908.00
2018-11-27T12:55:13.564Z,1876.00
2018-11-27T12:56:13.555Z,1832.00
2018-11-27T12:57:13.554Z,1792.00
2018-11-27T12:58:13.531Z,1776.00
2018-11-27T12:59:13.524Z,1768.00
2018-11-27T13:00:13.513Z,1744.00
2018-11-27T13:01:13.497Z,1708.00
2018-11-27T13:02:13.486Z,1684.00
2018-11-27T13:03:13.475Z,1660.00
2018-11-27T13:04:13.463Z,1640.00
2018-11-27T13:05:13.455Z,1620.00
2018-11-27T13:06:13.442Z,1596.00
2018-11-27T13:07:13.431Z,1576.00
2018-11-27T13:08:13.421Z,1552.00
2018-11-27T13:09:13.412Z,1524.00
2018-11-27T13:10:13.400Z,1504.00
2018-11-27T13:11:13.386Z,1476.00
2018-11-27T13:12:13.375Z,1444.00
2018-11-27T13:13:13.371Z,1424.00
2018-11-27T13:14:13.354Z,1408.00
2018-11-27T13:15:13.341Z,1400.00
2018-11-27T13:16:13.340Z,1396.00
2018-11-27T13:17:13.326Z,1388.00
2018-11-27T13:18:13.310Z,1368.00
2018-11-27T13:19:13.299Z,1352.00
2018-11-27T13:20:13.294Z,1356.00
2018-11-27T13:21:13.275Z,1360.00
2018-11-27T13:22:13.265Z,1368.00
2018-11-27T13:23:13.258Z,1364.00
2018-11-27T13:24:13.245Z,1364.00
2018-11-27T13:25:13.232Z,1356.00
2018-11-27T13:26:13.221Z,1352.00
2018-11-27T13:27:13.262Z,1356.00
2018-11-27T13:28:13.198Z,1360.00
2018-11-27T13:29:13.187Z,1360.00
2018-11-27T13:30:13.181Z,1352.00
2018-11-27T13:31:13.167Z,1332.00
2018-11-27T13:32:13.166Z,1316.00
2018-11-27T13:33:13.147Z,1304.00
2018-11-27T13:34:13.137Z,1296.00
2018-11-27T13:35:13.127Z,1288.00
2018-11-27T13:36:13.109Z,1272.00
2018-11-27T13:37:13.098Z,1260.00
2018-11-27T13:38:13.094Z,1252.00
2018-11-27T13:39:13.076Z,1256.00
2018-11-27T13:40:13.064Z,1252.00
2018-11-27T13:41:13.054Z,1244.00
2018-11-27T13:42:13.076Z,1236.00
2018-11-27T13:43:13.039Z,1220.00
2018-11-27T13:44:13.023Z,1212.00
2018-11-27T13:45:13.014Z,1192.00
2018-11-27T13:46:13.004Z,1172.00
2018-11-27T13:47:12.987Z,1156.00
2018-11-27T13:48:13.019Z,1132.00
2018-11-27T13:49:12.966Z,1112.00
2018-11-27T13:50:13.001Z,1096.00
2018-11-27T13:51:12.941Z,1080.00
2018-11-27T13:52:12.934Z,1056.00
2018-11-27T13:53:12.921Z,1032.00
2018-11-27T13:54:12.918Z,1000.00
2018-11-27T13:55:12.930Z,976.00
2018-11-27T13:56:12.927Z,956.00
2018-11-27T13:57:12.927Z,940.00
2018-11-27T13:58:12.874Z,920.00
2018-11-27T13:59:12.888Z,904.00
2018-11-27T14:00:12.881Z,888.00
2018-11-27T14:01:12.874Z,876.00
2018-11-27T14:02:12.822Z,864.00
2018-11-27T14:03:12.809Z,848.00
2018-11-27T14:04:12.803Z,832.00
2018-11-27T14:05:12.792Z,812.00
2018-11-27T14:06:12.773Z,784.00
2018-11-27T14:07:12.766Z,748.00
2018-11-27T14:08:12.750Z,724.00
2018-11-27T14:09:12.755Z,708.00
2018-11-27T14:10:12.755Z,684.00
2018-11-27T14:11:12.717Z,672.00
2018-11-27T14:12:12.709Z,656.00
2018-11-27T14:13:12.700Z,640.00
2018-11-27T14:14:12.683Z,628.00
2018-11-27T14:15:12.679Z,620.00
2018-11-27T14:16:12.660Z,600.00
2018-11-27T14:17:12.662Z,588.00
2018-11-27T14:18:12.650Z,568.00
2018-11-27T14:19:12.646Z,548.00
2018-11-27T14:20:12.626Z,532.00
2018-11-27T14:21:12.618Z,520.00
2018-11-27T14:22:12.596Z,516.00
2018-11-27T14:23:12.614Z,508.00
2018-11-27T14:24:12.589Z,492.00
2018-11-27T14:25:12.558Z,480.00
2018-11-27T14:26:12.548Z,468.00
2018-11-27T14:27:12.543Z,456.00
2018-11-27T14:28:12.527Z,448.00
2018-11-27T14:29:12.515Z,432.00
2018-11-27T14:30:12.502Z,424.00
2018-11-27T14:31:12.492Z,412.00
2018-11-27T14:32:12.480Z,404.00
2018-11-27T14:33:12.468Z,396.00
2018-11-27T14:34:12.463Z,384.00
2018-11-27T14:35:12.447Z,376.00
2018-11-27T14:36:12.436Z,368.00
2018-11-27T14:37:12.423Z,356.00
2018-11-27T14:38:12.417Z,340.00
2018-11-27T14:39:12.402Z,332.00
2018-11-27T14:40:12.392Z,316.00
2018-11-27T14:41:12.384Z,304.00
2018-11-27T14:42:12.367Z,300.00
2018-11-27T14:43:12.358Z,288.00
2018-11-27T14:44:12.345Z,276.00
2018-11-27T14:45:12.333Z,268.00
2018-11-27T14:46:12.322Z,260.00
2018-11-27T14:47:12.312Z,252.00
2018-11-27T14:48:12.303Z,244.00
2018-11-27T14:49:12.289Z,236.00
2018-11-27T14:50:12.281Z,232.00
2018-11-27T14:51:12.266Z,224.00
2018-11-27T14:52:12.255Z,220.00
2018-11-27T14:53:12.244Z,212.00
2018-11-27T14:54:12.260Z,204.00
2018-11-27T14:55:12.230Z,200.00
2018-11-27T14:56:12.213Z,192.00
2018-11-27T14:57:12.200Z,188.00
2018-11-27T14:58:14.992Z,180.00
2018-11-27T14:59:12.183Z,176.00
2018-11-27T15:00:12.166Z,172.00
2018-11-27T15:01:12.161Z,168.00
2018-11-27T15:02:12.147Z,160.00
2018-11-27T15:03:12.140Z,160.00
2018-11-27T15:04:12.123Z,156.00
2018-11-27T15:05:12.112Z,152.00
2018-11-27T15:06:12.099Z,148.00
2018-11-27T15:07:12.091Z,144.00
2018-11-27T15:08:12.083Z,140.00
2018-11-27T15:09:12.069Z,136.00
2018-11-27T15:10:12.061Z,132.00
2018-11-27T15:11:12.773Z,132.00
2018-11-27T15:12:12.033Z,128.00
2018-11-27T15:13:12.022Z,124.00
2018-11-27T15:14:12.018Z,120.00
2018-11-27T15:15:12.000Z,120.00
2018-11-27T15:16:11.996Z,116.00
2018-11-27T15:17:11.981Z,116.00
2018-11-27T15:18:11.967Z,116.00
2018-11-27T15:19:11.956Z,116.00
2018-11-27T15:20:11.945Z,112.00
2018-11-27T15:21:11.940Z,112.00
2018-11-27T15:22:11.933Z,112.00
2018-11-27T15:23:11.921Z,108.00
2018-11-27T15:24:11.900Z,108.00
2018-11-27T15:25:11.894Z,108.00
2018-11-27T15:26:11.878Z,104.00
2018-11-27T15:27:11.867Z,108.00
2018-11-27T15:28:11.856Z,104.00
2018-11-27T15:29:11.847Z,104.00
2018-11-27T15:30:11.841Z,104.00
2018-11-27T15:31:11.828Z,104.00
2018-11-27T15:32:11.812Z,104.00
2018-11-27T15:33:11.800Z,104.00
2018-11-27T15:34:11.795Z,108.00
2018-11-27T15:35:11.778Z,104.00
2018-11-27T15:36:11.771Z,104.00
2018-11-27T15:37:11.760Z,104.00
2018-11-27T15:38:11.745Z,104.00
2018-11-27T15:39:11.737Z,104.00
2018-11-27T15:40:11.724Z,104.00
2018-11-27T15:41:11.712Z,104.00
2018-11-27T15:42:11.703Z,104.00
2018-11-27T15:43:11.689Z,104.00
2018-11-27T15:44:11.679Z,104.00
2018-11-27T15:45:11.674Z,104.00
2018-11-27T15:46:11.657Z,104.00
2018-11-27T15:47:11.653Z,104.00
2018-11-27T15:48:11.636Z,100.00
2018-11-27T15:49:11.631Z,100.00
2018-11-27T15:50:11.614Z,100.00
2018-11-27T15:51:11.600Z,104.00
2018-11-27T15:52:11.590Z,104.00
2018-11-27T15:53:11.582Z,104.00
2018-11-27T15:54:11.567Z,104.00
2018-11-27T15:55:11.557Z,104.00
2018-11-27T15:56:11.551Z,100.00
2018-11-27T15:57:11.537Z,100.00
2018-11-27T15:58:11.525Z,100.00
2018-11-27T15:59:11.511Z,104.00
2018-11-27T16:00:11.507Z,104.00
2018-11-27T16:01:11.493Z,104.00
2018-11-27T16:02:11.478Z,104.00
2018-11-27T16:03:11.469Z,104.00
2018-11-27T16:04:11.456Z,104.00
2018-11-27T16:05:11.445Z,104.00
2018-11-27T16:06:11.438Z,104.00
2018-11-27T16:07:11.422Z,104.00
2018-11-27T16:08:11.422Z,104.00
2018-11-27T16:09:11.403Z,104.00
2018-11-27T16:10:11.395Z,104.00
2018-11-27T16:11:11.385Z,104.00
2018-11-27T16:12:11.370Z,104.00
2018-11-27T16:13:11.357Z,104.00
2018-11-27T16:14:11.344Z,104.00
2018-11-27T16:15:11.337Z,104.00
2018-11-27T16:16:11.320Z,104.00
2018-11-27T16:17:11.323Z,104.00
2018-11-27T16:18:11.299Z,104.00
2018-11-27T16:19:11.292Z,104.00
2018-11-27T16:20:11.338Z,104.00
2018-11-27T16:21:11.269Z,104.00
2018-11-27T16:22:11.255Z,104.00
2018-11-27T16:23:11.244Z,104.00
2018-11-27T16:24:11.236Z,104.00
2018-11-27T16:25:11.221Z,104.00
2018-11-27T16:26:11.211Z,104.00
2018-11-27T16:27:11.196Z,104.00
2018-11-27T16:28:11.197Z,104.00
2018-11-27T16:29:11.174Z,104.00
2018-11-27T16:30:11.166Z,104.00
2018-11-27T16:31:11.153Z,104.00
2018-11-27T16:32:11.140Z,104.00
2018-11-27T16:33:11.129Z,108.00
2018-11-27T16:34:11.118Z,104.00
2018-11-27T16:35:11.106Z,100.00
2018-11-27T16:36:11.096Z,104.00
2018-11-27T16:37:11.083Z,104.00
2018-11-27T16:38:11.072Z,100.00
2018-11-27T16:39:11.066Z,4.00
2018-11-27T16:40:11.049Z,4.00
2018-11-27T16:41:11.046Z,4.00
2018-11-27T16:42:12.301Z,4.00
2018-11-27T16:43:11.015Z,4.00
2018-11-27T16:44:11.004Z,4.00
2018-11-27T16:45:11.000Z,4.00
2018-11-27T16:46:10.983Z,4.00
2018-11-27T16:47:10.972Z,4.00
2018-11-27T16:48:10.967Z,4.00
2018-11-27T16:49:10.951Z,4.00
2018-11-27T16:50:10.940Z,4.00
2018-11-27T16:51:10.935Z,4.00
2018-11-27T16:52:10.920Z,4.00
2018-11-27T16:53:10.907Z,4.00
2018-11-27T16:54:10.904Z,4.00
2018-11-27T16:55:10.883Z,4.00
2018-11-27T16:56:10.874Z,4.00
2018-11-27T16:57:10.863Z,4.00
2018-11-27T16:58:10.853Z,4.00
2018-11-27T16:59:10.841Z,4.00
2018-11-27T17:00:10.829Z,4.00
2018-11-27T17:01:10.819Z,4.00
2018-11-27T17:02:10.813Z,4.00
2018-11-27T17:03:10.797Z,4.00
2018-11-27T17:04:10.786Z,4.00
2018-11-27T17:05:10.773Z,4.00
2018-11-27T17:06:10.761Z,4.00
2018-11-27T17:07:10.751Z,4.00
2018-11-27T17:08:10.739Z,4.00
2018-11-27T17:09:10.731Z,4.00
2018-11-27T17:10:10.718Z,4.00
2018-11-27T17:11:10.707Z,4.00
2018-11-27T17:12:10.695Z,4.00
2018-11-27T17:13:10.690Z,4.00
2018-11-27T17:14:10.675Z,4.00
2018-11-27T17:15:10.664Z,4.00
2018-11-27T17:16:10.658Z,4.00
2018-11-27T17:17:10.640Z,4.00
2018-11-27T17:18:10.631Z,4.00
2018-11-27T17:19:10.620Z,4.00
2018-11-27T17:20:10.607Z,4.00
2018-11-27T17:21:10.596Z,4.00
2018-11-27T17:22:10.587Z,4.00
2018-11-27T17:23:10.572Z,4.00
2018-11-27T17:24:10.560Z,4.00
2018-11-27T17:25:10.553Z,4.00
2018-11-27T17:26:10.538Z,4.00
2018-11-27T17:27:10.526Z,4.00
2018-11-27T17:28:10.531Z,4.00
2018-11-27T17:29:10.505Z,4.00
2018-11-27T17:30:10.493Z,4.00
2018-11-27T17:31:10.484Z,4.00
2018-11-27T17:32:10.483Z,4.00
2018-11-27T17:33:10.466Z,4.00
2018-11-27T17:34:10.450Z,4.00
2018-11-27T17:35:10.436Z,4.00
2018-11-27T17:36:10.425Z,4.00
2018-11-27T17:37:10.422Z,4.00
2018-11-27T17:38:10.404Z,4.00
2018-11-27T17:39:10.392Z,4.00
2018-11-27T17:40:10.382Z,4.00
2018-11-27T17:41:10.370Z,4.00
2018-11-27T17:42:10.359Z,4.00
2018-11-27T17:43:10.350Z,4.00
2018-11-27T17:44:10.337Z,4.00
2018-11-27T17:45:10.331Z,4.00
2018-11-27T17:46:10.313Z,4.00
2018-11-27T17:47:10.303Z,4.00
2018-11-27T17:48:10.291Z,4.00
2018-11-27T17:49:10.286Z,4.00
2018-11-27T17:50:10.269Z,4.00
2018-11-27T17:51:10.257Z,4.00
2018-11-27T17:52:10.245Z,4.00
2018-11-27T17:53:10.236Z,4.00
2018-11-27T17:54:10.229Z,4.00
2018-11-27T17:55:10.219Z,4.00
2018-11-27T17:56:10.212Z,4.00
2018-11-27T17:57:10.193Z,4.00
2018-11-27T17:58:10.182Z,4.00
2018-11-27T17:59:10.170Z,4.00
2018-11-27T18:00:10.157Z,4.00
2018-11-27T18:01:10.145Z,4.00
2018-11-27T18:02:10.135Z,4.00
2018-11-27T18:03:10.125Z,4.00
2018-11-27T18:04:10.119Z,4.00
2018-11-27T18:05:10.103Z,4.00
2018-11-27T18:06:10.099Z,4.00
2018-11-27T18:07:10.079Z,4.00
2018-11-27T18:08:10.069Z,4.00
2018-11-27T18:09:10.058Z,4.00
2018-11-27T18:10:10.048Z,4.00
2018-11-27T18:11:10.041Z,4.00
2018-11-27T18:12:10.028Z,4.00
2018-11-27T18:13:10.013Z,4.00
2018-11-27T18:14:10.004Z,4.00
2018-11-27T18:15:09.991Z,4.00
2018-11-27T18:16:09.981Z,4.00
2018-11-27T18:17:09.970Z,4.00
2018-11-27T18:18:09.957Z,4.00
2018-11-27T18:19:09.955Z,4.00
2018-11-27T18:20:10.008Z,4.00
2018-11-27T18:21:09.923Z,4.00
2018-11-27T18:22:09.915Z,4.00
2018-11-27T18:23:09.909Z,4.00
2018-11-27T18:24:09.893Z,4.00
2018-11-27T18:25:09.882Z,4.00
2018-11-27T18:26:09.867Z,4.00
2018-11-27T18:27:09.859Z,4.00
2018-11-27T18:28:09.847Z,4.00
2018-11-27T18:29:09.842Z,4.00
2018-11-27T18:30:09.822Z,4.00
2018-11-27T18:31:09.812Z,4.00
2018-11-27T18:32:09.800Z,4.00
2018-11-27T18:33:09.789Z,4.00
2018-11-27T18:34:09.781Z,4.00
2018-11-27T18:35:09.773Z,4.00
2018-11-27T18:36:09.755Z,4.00
2018-11-27T18:37:09.744Z,4.00
2018-11-27T18:38:09.737Z,4.00
2018-11-27T18:39:09.770Z,4.00
2018-11-27T18:55:09.548Z,4.00
2018-11-27T18:56:09.535Z,0.00
2018-11-27T19:11:09.367Z,0.00
2018-11-27T19:18:09.288Z,0.00
2018-11-27T19:58:08.841Z,4.00
2018-11-27T19:59:08.831Z,4.00
2018-11-27T20:00:08.825Z,4.00
2018-11-27T20:01:08.811Z,4.00
2018-11-27T20:02:08.798Z,4.00
2018-11-27T20:03:08.788Z,4.00
2018-11-27T20:04:08.780Z,4.00
2018-11-27T20:05:08.763Z,4.00
2018-11-27T20:06:08.755Z,4.00
2018-11-27T20:07:08.747Z,4.00
2018-11-27T20:08:08.735Z,4.00
2018-11-27T20:09:08.718Z,4.00
2018-11-27T20:10:08.711Z,4.00
2018-11-27T20:11:08.696Z,4.00
2018-11-27T20:12:08.688Z,4.00
2018-11-27T20:13:08.673Z,4.00
2018-11-27T20:14:08.666Z,4.00
2018-11-27T20:15:08.654Z,4.00
2018-11-27T20:16:08.647Z,4.00
2018-11-27T21:00:08.151Z,0.00
2018-11-27T21:01:09.442Z,0.00
2018-11-27T22:02:07.457Z,0.00
